Sardinia Regina — IBMS — position and weather

sailwx.info

Track history (hours):
 
Tides and Currents Weather Stations Pressure Air Temp Water Temp Dewpoint Dewpoint Depression Visibility Wind Speed Wind Dir Waves Ship Positions

Sardinia Regina

Last reported at 2014-Sep-15 21:33 UTC. Time now 2014-Sep-16 00:59 UTC.
Position N 43°02' E 010°04'.

Length 146 m; draft 5 m.

Type: Passenger vessel. MMSI: 247079000.

Date/timePositionNaut miles runAvg speedWind from/ knotsBaromVisibWave heightAir tempDewpointWater temp
2014-Sep-15 21:33N 43°02' E 010°04'1818.0
2014-Sep-15 20:34N 43°20' E 010°10'1414.2
2014-Sep-15 19:33N 43°33' E 010°17'1 0.6
2014-Sep-15 18:33N 43°33' E 010°18'0 0.0
2014-Sep-15 17:33N 43°33' E 010°18'0 0.0
2014-Sep-15 16:33N 43°33' E 010°18'0 0.0
2014-Sep-15 15:33N 43°33' E 010°18'0 0.0
2014-Sep-15 14:33N 43°33' E 010°18'0 0.0
2014-Sep-15 13:33N 43°33' E 010°18'0 0.0
2014-Sep-15 12:33N 43°33' E 010°18'0 0.0
2014-Sep-15 11:33N 43°33' E 010°18'3 3.2
2014-Sep-15 10:34N 43°31' E 010°15'1515.4
2014-Sep-15 09:34N 43°20' E 010°00'31 3.8
2014-Sep-15 01:32N 43°18' E 009°18'1414.5
2014-Sep-15 00:33N 43°31' E 009°09'1515.3
2014-Sep-14 23:33N 43°43' E 008°57'1515.2
2014-Sep-14 22:33N 43°56' E 008°46'1615.5
2014-Sep-14 21:33N 44°09' E 008°34'8 8.4
2014-Sep-14 20:33N 44°16' E 008°27'0 0.0
2014-Sep-14 19:33N 44°16' E 008°27'1313.0
2014-Sep-14 18:33N 44°06' E 008°39'1717.4
2014-Sep-14 17:33N 43°51' E 008°52'1817.8
2014-Sep-14 16:33N 43°36' E 009°04'1818.0
2014-Sep-14 15:33N 43°20' E 009°17'3 0.6
2014-Sep-14 09:33N 43°17' E 009°19'1717.4
2014-Sep-14 08:33N 43°32' E 009°07'1817.8
2014-Sep-14 07:33N 43°47' E 008°54'1817.9
2014-Sep-14 06:32N 44°03' E 008°40'1616.2
2014-Sep-14 05:32N 44°16' E 008°27'0 0.0
2014-Sep-14 04:30N 44°16' E 008°27'8 8.8
2014-Sep-14 03:33N 44°10' E 008°35'1212.5
2014-Sep-14 02:33N 43°59' E 008°44'1312.5
2014-Sep-14 01:33N 43°49' E 008°53'4310.7
2014-Sep-13 21:33N 43°12' E 009°23'26 4.1
2014-Sep-13 15:18N 42°54' E 009°48'1316.3
2014-Sep-13 14:31N 43°03' E 009°59'1617.1
2014-Sep-13 13:33N 43°19' E 010°06'1515.1
2014-Sep-13 12:33N 43°32' E 010°17'2 1.6
2014-Sep-13 11:33N 43°33' E 010°18'2 1.8
2014-Sep-13 10:33N 43°32' E 010°16'1515.4
2014-Sep-13 09:34N 43°21' E 010°02'35 4.1
2014-Sep-13 01:08N 43°23' E 009°14'712.8
2014-Sep-13 00:34N 43°29' E 009°09'1515.3
2014-Sep-12 23:33N 43°42' E 008°57'1515.4
2014-Sep-12 22:34N 43°55' E 008°46'1915.8
2014-Sep-12 21:22N 44°11' E 008°33'6 5.9
2014-Sep-12 20:17N 44°16' E 008°27'0 0.0
2014-Sep-12 19:33N 44°16' E 008°27'1111.1
2014-Sep-12 18:34N 44°05' E 008°32'1716.6
2014-Sep-12 17:34N 43°49' E 008°36'1716.9
2014-Sep-12 16:33N 43°32' E 008°38'3 0.4
2014-Sep-12 08:27N 43°29' E 008°38'1617.5
2014-Sep-12 07:33N 43°45' E 008°35'1817.9
2014-Sep-12 06:33N 44°03' E 008°32'1413.0
2014-Sep-12 05:30N 44°16' E 008°27'0 0.0
2014-Sep-12 04:33N 44°16' E 008°27'7 7.4
2014-Sep-12 03:33N 44°11' E 008°35'1212.3
2014-Sep-12 02:33N 44°00' E 008°44'1212.5
2014-Sep-12 01:33N 43°50' E 008°53'1312.9
2014-Sep-12 00:33N 43°39' E 009°02'1312.7
2014-Sep-11 23:33N 43°28' E 009°11'1010.3
2014-Sep-11 22:33N 43°19' E 009°17'33 4.8
2014-Sep-11 15:33N 42°53' E 009°47'1717.3
2014-Sep-11 14:34N 43°07' E 010°01'1818.1
2014-Sep-11 13:33N 43°24' E 010°09'1111.4
2014-Sep-11 12:34N 43°33' E 010°18'0 0.0
2014-Sep-11 11:34N 43°33' E 010°18'3 3.2
2014-Sep-11 10:33N 43°31' E 010°15'1616.4
2014-Sep-11 09:33N 43°19' E 009°59'1716.6
2014-Sep-11 08:31N 43°07' E 009°43'26 3.6
2014-Sep-11 01:21N 43°23' E 009°15'1012.9
2014-Sep-11 00:33N 43°32' E 009°08'1313.1
2014-Sep-10 23:33N 43°42' E 008°57'1313.2
2014-Sep-10 22:34N 43°54' E 008°48'1615.6
2014-Sep-10 21:34N 44°07' E 008°36'11 9.9
2014-Sep-10 20:26N 44°16' E 008°27'0 0.0
2014-Sep-10 19:33N 44°16' E 008°27'1212.4
2014-Sep-10 18:33N 44°06' E 008°38'1817.9
2014-Sep-10 17:34N 43°51' E 008°51'1818.2
2014-Sep-10 16:34N 43°35' E 009°04'1817.7
2014-Sep-10 15:34N 43°20' E 009°16'2117.9
2014-Sep-10 14:23N 43°02' E 009°31'53 7.8
2014-Sep-10 07:33N 43°48' E 008°53'2017.6
2014-Sep-10 06:26N 44°05' E 008°39'1412.8
2014-Sep-10 05:21N 44°16' E 008°27'0 0.0
2014-Sep-10 04:29N 44°16' E 008°27'8 8.7
2014-Sep-10 03:33N 44°10' E 008°35'1212.1
2014-Sep-10 02:33N 43°60' E 008°44'1212.4
2014-Sep-10 01:33N 43°50' E 008°53'1312.5
2014-Sep-10 00:34N 43°39' E 009°03'1515.3
2014-Sep-09 23:34N 43°26' E 009°13'1515.1
2014-Sep-09 22:33N 43°13' E 009°23'13 2.2
2014-Sep-09 16:27N 43°24' E 009°13'1617.7
2014-Sep-09 15:33N 43°37' E 009°01'1717.5
2014-Sep-09 14:33N 43°52' E 008°50'1817.7
2014-Sep-09 13:33N 44°08' E 008°38'1110.6
2014-Sep-09 12:30N 44°16' E 008°27'0 0.0
2014-Sep-09 11:33N 44°16' E 008°27'0 0.0
2014-Sep-09 10:34N 44°16' E 008°27'0 0.0
2014-Sep-09 08:06N 44°16' E 008°27'0 0.0
2014-Sep-09 07:32N 44°16' E 008°27'0 0.0
2014-Sep-09 06:32N 44°16' E 008°27'10 4.0
2014-Sep-09 04:10N 44°09' E 008°36'6 9.5
2014-Sep-09 03:33N 44°04' E 008°40'10 9.6
2014-Sep-09 02:34N 43°56' E 008°47'1010.0
2014-Sep-09 01:34N 43°47' E 008°54'10 9.8
2014-Sep-09 00:34N 43°39' E 009°02'9 9.4
2014-Sep-08 23:34N 43°31' E 009°08'9 9.3
2014-Sep-08 22:34N 43°23' E 009°15'10 9.5
2014-Sep-08 21:33N 43°14' E 009°21'1410.1
2014-Sep-08 20:08N 43°02' E 009°30'17 1.7
2014-Sep-08 10:27N 43°16' E 009°19'1617.7
2014-Sep-08 09:33N 43°30' E 009°07'1717.5
2014-Sep-08 08:33N 43°45' E 008°55'1717.4
2014-Sep-08 07:33N 43°59' E 008°41'1717.6
2014-Sep-08 06:33N 44°14' E 008°29'2 2.2
2014-Sep-08 05:33N 44°16' E 008°27'9 7.2
2014-Sep-08 04:20N 44°09' E 008°35'911.1
2014-Sep-08 03:33N 44°02' E 008°41'1010.1
2014-Sep-08 02:33N 43°54' E 008°49'10 9.8
2014-Sep-08 01:33N 43°45' E 008°56'9 9.3
2014-Sep-08 00:33N 43°37' E 009°03'9 9.2
2014-Sep-07 23:34N 43°30' E 009°10'18 8.9
2014-Sep-07 21:33N 43°14' E 009°21'28 4.4
2014-Sep-07 15:15N 42°53' E 009°48'1215.4
2014-Sep-07 14:30N 43°02' E 009°58'1515.4
2014-Sep-07 13:33N 43°16' E 010°05'1615.5
2014-Sep-07 12:33N 43°30' E 010°13'5 4.8
2014-Sep-07 11:33N 43°33' E 010°18'2 1.7
2014-Sep-07 10:33N 43°32' E 010°16'1413.8
2014-Sep-07 09:34N 43°22' E 010°03'1615.8
2014-Sep-07 08:34N 43°11' E 009°48'22 3.1
2014-Sep-07 01:33N 43°19' E 009°19'1313.2
2014-Sep-07 00:34N 43°30' E 009°09'1515.3
2014-Sep-06 23:34N 43°43' E 008°58'1515.1
2014-Sep-06 22:34N 43°55' E 008°47'1515.2
2014-Sep-06 21:33N 44°08' E 008°36'1010.0
2014-Sep-06 20:33N 44°16' E 008°27'0 0.2
2014-Sep-06 19:34N 44°16' E 008°27'1615.7
2014-Sep-06 18:34N 44°04' E 008°41'1817.6
2014-Sep-06 17:34N 43°49' E 008°53'1717.3
2014-Sep-06 16:34N 43°34' E 009°05'1717.1
2014-Sep-06 15:34N 43°19' E 009°16'1717.0
2014-Sep-06 14:33N 43°04' E 009°29'12 3.6
2014-Sep-06 11:11N 42°52' E 009°32'2817.3
2014-Sep-06 09:33N 43°18' E 009°18'1817.8
2014-Sep-06 08:34N 43°33' E 009°06'1717.5
2014-Sep-06 07:34N 43°48' E 008°53'1817.8
2014-Sep-06 06:34N 44°03' E 008°39'1615.5
2014-Sep-06 05:33N 44°16' E 008°27'0 0.0
2014-Sep-06 04:33N 44°16' E 008°27'8 7.6
2014-Sep-06 03:33N 44°11' E 008°35'1212.1
2014-Sep-06 02:33N 44°00' E 008°43'1212.0
2014-Sep-06 01:33N 43°50' E 008°52'1212.3
2014-Sep-06 00:33N 43°40' E 009°01'1212.2
2014-Sep-05 23:33N 43°29' E 009°10'10 9.7
2014-Sep-05 22:33N 43°21' E 009°16'9 8.6
2014-Sep-05 21:33N 43°13' E 009°22'  
Track history (hours):
 
Tides and Currents Weather Stations Pressure Air Temp Water Temp Dewpoint Dewpoint Depression Visibility Wind Speed Wind Dir Waves Ship Positions

Sardinia Regina

Last reported at 2014-Sep-15 21:33 UTC. Time now 2014-Sep-16 00:59 UTC.
Position N 43°02' E 010°04'.

Length 146 m; draft 5 m.

Type: Passenger vessel. MMSI: 247079000.

Date/timePositionNaut miles runAvg speedWind from/ knotsBaromVisibWave heightAir tempDewpointWater temp
2014-Sep-15 21:33N 43°02' E 010°04'1818.0
2014-Sep-15 20:34N 43°20' E 010°10'1414.2
2014-Sep-15 19:33N 43°33' E 010°17'1 0.6
2014-Sep-15 18:33N 43°33' E 010°18'0 0.0
2014-Sep-15 17:33N 43°33' E 010°18'0 0.0
2014-Sep-15 16:33N 43°33' E 010°18'0 0.0
2014-Sep-15 15:33N 43°33' E 010°18'0 0.0
2014-Sep-15 14:33N 43°33' E 010°18'0 0.0
2014-Sep-15 13:33N 43°33' E 010°18'0 0.0
2014-Sep-15 12:33N 43°33' E 010°18'0 0.0
2014-Sep-15 11:33N 43°33' E 010°18'3 3.2
2014-Sep-15 10:34N 43°31' E 010°15'1515.4
2014-Sep-15 09:34N 43°20' E 010°00'31 3.8
2014-Sep-15 01:32N 43°18' E 009°18'1414.5
2014-Sep-15 00:33N 43°31' E 009°09'1515.3
2014-Sep-14 23:33N 43°43' E 008°57'1515.2
2014-Sep-14 22:33N 43°56' E 008°46'1615.5
2014-Sep-14 21:33N 44°09' E 008°34'8 8.4
2014-Sep-14 20:33N 44°16' E 008°27'0 0.0
2014-Sep-14 19:33N 44°16' E 008°27'1313.0
2014-Sep-14 18:33N 44°06' E 008°39'1717.4
2014-Sep-14 17:33N 43°51' E 008°52'1817.8
2014-Sep-14 16:33N 43°36' E 009°04'1818.0
2014-Sep-14 15:33N 43°20' E 009°17'3 0.6
2014-Sep-14 09:33N 43°17' E 009°19'1717.4
2014-Sep-14 08:33N 43°32' E 009°07'1817.8
2014-Sep-14 07:33N 43°47' E 008°54'1817.9
2014-Sep-14 06:32N 44°03' E 008°40'1616.2
2014-Sep-14 05:32N 44°16' E 008°27'0 0.0
2014-Sep-14 04:30N 44°16' E 008°27'8 8.8
2014-Sep-14 03:33N 44°10' E 008°35'1212.5
2014-Sep-14 02:33N 43°59' E 008°44'1312.5
2014-Sep-14 01:33N 43°49' E 008°53'4310.7
2014-Sep-13 21:33N 43°12' E 009°23'26 4.1
2014-Sep-13 15:18N 42°54' E 009°48'1316.3
2014-Sep-13 14:31N 43°03' E 009°59'1617.1
2014-Sep-13 13:33N 43°19' E 010°06'1515.1
2014-Sep-13 12:33N 43°32' E 010°17'2 1.6
2014-Sep-13 11:33N 43°33' E 010°18'2 1.8
2014-Sep-13 10:33N 43°32' E 010°16'1515.4
2014-Sep-13 09:34N 43°21' E 010°02'35 4.1
2014-Sep-13 01:08N 43°23' E 009°14'712.8
2014-Sep-13 00:34N 43°29' E 009°09'1515.3
2014-Sep-12 23:33N 43°42' E 008°57'1515.4
2014-Sep-12 22:34N 43°55' E 008°46'1915.8
2014-Sep-12 21:22N 44°11' E 008°33'6 5.9
2014-Sep-12 20:17N 44°16' E 008°27'0 0.0
2014-Sep-12 19:33N 44°16' E 008°27'1111.1
2014-Sep-12 18:34N 44°05' E 008°32'1716.6
2014-Sep-12 17:34N 43°49' E 008°36'1716.9
2014-Sep-12 16:33N 43°32' E 008°38'3 0.4
2014-Sep-12 08:27N 43°29' E 008°38'1617.5
2014-Sep-12 07:33N 43°45' E 008°35'1817.9
2014-Sep-12 06:33N 44°03' E 008°32'1413.0
2014-Sep-12 05:30N 44°16' E 008°27'0 0.0
2014-Sep-12 04:33N 44°16' E 008°27'7 7.4
2014-Sep-12 03:33N 44°11' E 008°35'1212.3
2014-Sep-12 02:33N 44°00' E 008°44'1212.5
2014-Sep-12 01:33N 43°50' E 008°53'1312.9
2014-Sep-12 00:33N 43°39' E 009°02'1312.7
2014-Sep-11 23:33N 43°28' E 009°11'1010.3
2014-Sep-11 22:33N 43°19' E 009°17'33 4.8
2014-Sep-11 15:33N 42°53' E 009°47'1717.3
2014-Sep-11 14:34N 43°07' E 010°01'1818.1
2014-Sep-11 13:33N 43°24' E 010°09'1111.4
2014-Sep-11 12:34N 43°33' E 010°18'0 0.0
2014-Sep-11 11:34N 43°33' E 010°18'3 3.2
2014-Sep-11 10:33N 43°31' E 010°15'1616.4
2014-Sep-11 09:33N 43°19' E 009°59'1716.6
2014-Sep-11 08:31N 43°07' E 009°43'26 3.6
2014-Sep-11 01:21N 43°23' E 009°15'1012.9
2014-Sep-11 00:33N 43°32' E 009°08'1313.1
2014-Sep-10 23:33N 43°42' E 008°57'1313.2
2014-Sep-10 22:34N 43°54' E 008°48'1615.6
2014-Sep-10 21:34N 44°07' E 008°36'11 9.9
2014-Sep-10 20:26N 44°16' E 008°27'0 0.0
2014-Sep-10 19:33N 44°16' E 008°27'1212.4
2014-Sep-10 18:33N 44°06' E 008°38'1817.9
2014-Sep-10 17:34N 43°51' E 008°51'1818.2
2014-Sep-10 16:34N 43°35' E 009°04'1817.7
2014-Sep-10 15:34N 43°20' E 009°16'2117.9
2014-Sep-10 14:23N 43°02' E 009°31'53 7.8
2014-Sep-10 07:33N 43°48' E 008°53'2017.6
2014-Sep-10 06:26N 44°05' E 008°39'1412.8
2014-Sep-10 05:21N 44°16' E 008°27'0 0.0
2014-Sep-10 04:29N 44°16' E 008°27'8 8.7
2014-Sep-10 03:33N 44°10' E 008°35'1212.1
2014-Sep-10 02:33N 43°60' E 008°44'1212.4
2014-Sep-10 01:33N 43°50' E 008°53'1312.5
2014-Sep-10 00:34N 43°39' E 009°03'1515.3
2014-Sep-09 23:34N 43°26' E 009°13'1515.1
2014-Sep-09 22:33N 43°13' E 009°23'13 2.2
2014-Sep-09 16:27N 43°24' E 009°13'1617.7
2014-Sep-09 15:33N 43°37' E 009°01'1717.5
2014-Sep-09 14:33N 43°52' E 008°50'1817.7
2014-Sep-09 13:33N 44°08' E 008°38'1110.6
2014-Sep-09 12:30N 44°16' E 008°27'0 0.0
2014-Sep-09 11:33N 44°16' E 008°27'0 0.0
2014-Sep-09 10:34N 44°16' E 008°27'0 0.0
2014-Sep-09 08:06N 44°16' E 008°27'0 0.0
2014-Sep-09 07:32N 44°16' E 008°27'0 0.0
2014-Sep-09 06:32N 44°16' E 008°27'10 4.0
2014-Sep-09 04:10N 44°09' E 008°36'6 9.5
2014-Sep-09 03:33N 44°04' E 008°40'10 9.6
2014-Sep-09 02:34N 43°56' E 008°47'1010.0
2014-Sep-09 01:34N 43°47' E 008°54'10 9.8
2014-Sep-09 00:34N 43°39' E 009°02'9 9.4
2014-Sep-08 23:34N 43°31' E 009°08'9 9.3
2014-Sep-08 22:34N 43°23' E 009°15'10 9.5
2014-Sep-08 21:33N 43°14' E 009°21'1410.1
2014-Sep-08 20:08N 43°02' E 009°30'17 1.7
2014-Sep-08 10:27N 43°16' E 009°19'1617.7
2014-Sep-08 09:33N 43°30' E 009°07'1717.5
2014-Sep-08 08:33N 43°45' E 008°55'1717.4
2014-Sep-08 07:33N 43°59' E 008°41'1717.6
2014-Sep-08 06:33N 44°14' E 008°29'2 2.2
2014-Sep-08 05:33N 44°16' E 008°27'9 7.2
2014-Sep-08 04:20N 44°09' E 008°35'911.1
2014-Sep-08 03:33N 44°02' E 008°41'1010.1
2014-Sep-08 02:33N 43°54' E 008°49'10 9.8
2014-Sep-08 01:33N 43°45' E 008°56'9 9.3
2014-Sep-08 00:33N 43°37' E 009°03'9 9.2
2014-Sep-07 23:34N 43°30' E 009°10'18 8.9
2014-Sep-07 21:33N 43°14' E 009°21'28 4.4
2014-Sep-07 15:15N 42°53' E 009°48'1215.4
2014-Sep-07 14:30N 43°02' E 009°58'1515.4
2014-Sep-07 13:33N 43°16' E 010°05'1615.5
2014-Sep-07 12:33N 43°30' E 010°13'5 4.8
2014-Sep-07 11:33N 43°33' E 010°18'2 1.7
2014-Sep-07 10:33N 43°32' E 010°16'1413.8
2014-Sep-07 09:34N 43°22' E 010°03'1615.8
2014-Sep-07 08:34N 43°11' E 009°48'22 3.1
2014-Sep-07 01:33N 43°19' E 009°19'1313.2
2014-Sep-07 00:34N 43°30' E 009°09'1515.3
2014-Sep-06 23:34N 43°43' E 008°58'1515.1
2014-Sep-06 22:34N 43°55' E 008°47'1515.2
2014-Sep-06 21:33N 44°08' E 008°36'1010.0
2014-Sep-06 20:33N 44°16' E 008°27'0 0.2
2014-Sep-06 19:34N 44°16' E 008°27'1615.7
2014-Sep-06 18:34N 44°04' E 008°41'1817.6
2014-Sep-06 17:34N 43°49' E 008°53'1717.3
2014-Sep-06 16:34N 43°34' E 009°05'1717.1
2014-Sep-06 15:34N 43°19' E 009°16'1717.0
2014-Sep-06 14:33N 43°04' E 009°29'12 3.6
2014-Sep-06 11:11N 42°52' E 009°32'2817.3
2014-Sep-06 09:33N 43°18' E 009°18'1817.8
2014-Sep-06 08:34N 43°33' E 009°06'1717.5
2014-Sep-06 07:34N 43°48' E 008°53'1817.8
2014-Sep-06 06:34N 44°03' E 008°39'1615.5
2014-Sep-06 05:33N 44°16' E 008°27'0 0.0
2014-Sep-06 04:33N 44°16' E 008°27'8 7.6
2014-Sep-06 03:33N 44°11' E 008°35'1212.1
2014-Sep-06 02:33N 44°00' E 008°43'1212.0
2014-Sep-06 01:33N 43°50' E 008°52'1212.3
2014-Sep-06 00:33N 43°40' E 009°01'1212.2
2014-Sep-05 23:33N 43°29' E 009°10'10 9.7
2014-Sep-05 22:33N 43°21' E 009°16'9 8.6
2014-Sep-05 21:33N 43°13' E 009°22'  

Dump ship's entire track history